createdAt,value
2018-07-17T00:01:51.431Z,23.8
2018-07-17T00:18:42.691Z,23.8
2018-07-17T00:35:33.831Z,23.5
2018-07-17T00:52:24.922Z,23.5
2018-07-17T01:09:15.871Z,23.5
2018-07-17T01:26:06.859Z,23.5
2018-07-17T01:42:57.743Z,23.5
2018-07-17T01:59:48.525Z,23.2
2018-07-17T02:16:39.304Z,23.2
2018-07-17T02:33:29.976Z,23.2
2018-07-17T02:50:20.573Z,23.2
2018-07-17T03:07:11.294Z,23.2
2018-07-17T03:24:02.117Z,23.2
2018-07-17T03:40:51.992Z,22.9
2018-07-17T03:57:42.421Z,22.9
2018-07-17T04:14:32.769Z,22.9
2018-07-17T04:31:22.945Z,22.9
2018-07-17T04:48:13.258Z,22.9
2018-07-17T05:05:03.611Z,23.2
2018-07-17T05:21:54.979Z,23.5
2018-07-17T05:28:39.770Z,24.2
2018-07-17T05:45:31.562Z,24.8
2018-07-17T05:59:01.730Z,25.4
2018-07-17T06:15:55.052Z,25.8
2018-07-17T06:32:48.868Z,25.8
2018-07-17T06:49:42.720Z,26.1
2018-07-17T07:06:36.784Z,26.1
2018-07-17T07:23:31.223Z,26.1
2018-07-17T07:40:25.454Z,26.1
2018-07-17T07:57:19.831Z,26.4
2018-07-17T08:14:14.514Z,26.4
2018-07-17T08:31:09.121Z,26.7
2018-07-17T08:48:04.028Z,26.7
2018-07-17T09:04:59.035Z,26.7
2018-07-17T09:21:54.213Z,27.0
2018-07-17T09:38:49.564Z,27.0
2018-07-17T09:55:44.909Z,27.0
2018-07-17T10:12:40.399Z,27.4
2018-07-17T10:29:36.064Z,27.4
2018-07-17T10:46:31.869Z,27.7
2018-07-17T11:03:27.846Z,27.7
2018-07-17T11:20:23.926Z,27.7
2018-07-17T11:37:20.183Z,28.0
2018-07-17T11:54:16.526Z,28.0
2018-07-17T12:11:12.852Z,28.0
2018-07-17T12:28:09.329Z,28.0
2018-07-17T12:45:05.948Z,28.0
2018-07-17T13:02:02.709Z,28.3
2018-07-17T13:18:59.673Z,28.3
2018-07-17T13:35:56.066Z,28.3
2018-07-17T13:52:53.598Z,28.3
2018-07-17T14:09:50.167Z,28.3
2018-07-17T14:26:47.029Z,28.3
2018-07-17T14:43:43.938Z,28.3
2018-07-17T15:00:40.915Z,28.3
2018-07-17T15:17:37.682Z,28.3
2018-07-17T15:34:34.369Z,28.0
2018-07-17T15:51:31.009Z,28.0
2018-07-17T16:08:27.715Z,28.0
2018-07-17T16:25:24.310Z,28.3
2018-07-17T16:42:21.089Z,28.0
2018-07-17T16:59:17.509Z,28.0
2018-07-17T17:16:13.863Z,27.7
2018-07-17T17:33:09.914Z,27.7
2018-07-17T17:50:05.963Z,27.4
2018-07-17T18:07:01.857Z,27.4
2018-07-17T18:23:57.525Z,27.0
2018-07-17T18:40:53.209Z,27.0
2018-07-17T18:57:48.669Z,26.7
2018-07-17T19:14:43.901Z,26.4
2018-07-17T19:31:38.835Z,26.4
2018-07-17T19:48:33.852Z,26.1
2018-07-17T20:05:27.826Z,25.8
2018-07-17T20:22:21.784Z,25.1
2018-07-17T20:39:15.168Z,25.1
2018-07-17T20:56:08.623Z,24.8
2018-07-17T21:13:01.496Z,24.5
2018-07-17T21:29:54.236Z,24.5
2018-07-17T21:46:46.511Z,24.2
2018-07-17T22:03:37.889Z,23.8
2018-07-17T22:20:29.352Z,23.8
2018-07-17T22:37:20.480Z,23.8
2018-07-17T22:54:11.684Z,23.5
2018-07-17T23:11:02.664Z,23.2
2018-07-17T23:27:53.443Z,23.5
2018-07-17T23:44:44.038Z,23.2
